createdAt,value
2023-01-29T00:00:18.735Z,81
2023-01-29T00:01:26.925Z,81
2023-01-29T00:02:35.083Z,81
2023-01-29T00:03:42.220Z,81
2023-01-29T00:04:50.301Z,80
2023-01-29T00:05:58.237Z,80
2023-01-29T00:07:10.056Z,80
2023-01-29T00:08:19.125Z,81
2023-01-29T00:09:26.403Z,81
2023-01-29T00:10:33.653Z,81
2023-01-29T00:11:41.157Z,81
2023-01-29T00:12:48.367Z,81
2023-01-29T00:13:56.409Z,80
2023-01-29T00:15:03.681Z,81
2023-01-29T00:16:12.097Z,81
2023-01-29T00:17:19.543Z,82
2023-01-29T00:18:26.550Z,81
2023-01-29T00:19:33.648Z,81
2023-01-29T00:20:41.707Z,81
2023-01-29T00:21:48.961Z,82
2023-01-29T00:22:56.105Z,81
2023-01-29T00:24:03.283Z,81
2023-01-29T00:25:11.707Z,81
2023-01-29T00:26:19.546Z,80
2023-01-29T00:27:27.746Z,80
2023-01-29T00:28:35.056Z,80
2023-01-29T00:29:42.383Z,81
2023-01-29T00:30:49.670Z,81
2023-01-29T00:31:56.710Z,82
2023-01-29T00:33:04.363Z,81
2023-01-29T00:34:12.437Z,81
2023-01-29T00:35:19.689Z,81
2023-01-29T00:36:27.558Z,81
2023-01-29T00:37:34.954Z,81
2023-01-29T00:38:41.838Z,81
2023-01-29T00:39:49.252Z,80
2023-01-29T00:40:57.451Z,80
2023-01-29T00:42:13.056Z,80
2023-01-29T00:43:26.180Z,80
2023-01-29T00:44:39.739Z,80
2023-01-29T00:45:53.003Z,79
2023-01-29T00:47:00.563Z,80
2023-01-29T00:48:10.033Z,80
2023-01-29T00:49:17.178Z,80
2023-01-29T00:50:24.957Z,79
2023-01-29T00:51:32.256Z,79
2023-01-29T00:52:39.785Z,79
2023-01-29T00:53:47.323Z,79
2023-01-29T00:54:54.233Z,79
2023-01-29T00:56:02.563Z,79
2023-01-29T00:57:10.446Z,79
2023-01-29T00:58:17.968Z,79
2023-01-29T00:59:26.447Z,79
2023-01-29T01:00:34.382Z,78
2023-01-29T01:01:42.556Z,78
2023-01-29T01:02:54.802Z,78
2023-01-29T01:04:08.029Z,78
2023-01-29T01:05:15.306Z,78
2023-01-29T01:06:22.973Z,77
2023-01-29T01:07:30.035Z,77
2023-01-29T01:08:38.355Z,77
2023-01-29T01:09:50.860Z,77
2023-01-29T01:11:03.212Z,77
2023-01-29T01:12:10.692Z,77
2023-01-29T01:13:17.896Z,76
2023-01-29T01:14:24.913Z,76
2023-01-29T01:15:32.259Z,76
2023-01-29T01:16:39.349Z,76
2023-01-29T01:17:46.411Z,76
2023-01-29T01:18:58.032Z,76
2023-01-29T01:20:07.079Z,77
2023-01-29T01:21:14.472Z,77
2023-01-29T01:22:22.412Z,77
2023-01-29T01:23:30.646Z,77
2023-01-29T01:24:37.768Z,77
2023-01-29T01:25:44.906Z,76
2023-01-29T01:26:53.204Z,76
2023-01-29T01:29:07.383Z,76
2023-01-29T01:30:14.976Z,76
2023-01-29T01:31:22.513Z,76
2023-01-29T01:32:30.559Z,76
2023-01-29T01:33:37.869Z,76
2023-01-29T01:34:45.493Z,75
2023-01-29T01:35:53.121Z,75
2023-01-29T01:37:01.267Z,75
2023-01-29T01:38:08.527Z,74
2023-01-29T01:39:15.590Z,74
2023-01-29T01:40:23.316Z,74
2023-01-29T01:41:30.135Z,74
2023-01-29T01:42:39.285Z,74
2023-01-29T01:43:47.791Z,73
2023-01-29T01:45:00.307Z,73
2023-01-29T01:46:07.568Z,71
2023-01-29T01:47:15.694Z,71
2023-01-29T01:48:34.887Z,70
2023-01-29T01:49:42.103Z,69
2023-01-29T01:50:49.136Z,69
2023-01-29T01:52:01.615Z,68
2023-01-29T01:53:08.842Z,67
2023-01-29T01:54:20.009Z,67
2023-01-29T01:55:32.491Z,67
2023-01-29T01:56:43.248Z,67
2023-01-29T01:57:50.399Z,67
2023-01-29T01:58:57.363Z,67
2023-01-29T02:00:05.443Z,67
2023-01-29T02:01:13.645Z,67
2023-01-29T02:02:21.004Z,68
2023-01-29T02:03:33.653Z,68
2023-01-29T02:04:46.131Z,68
2023-01-29T02:05:58.644Z,66
2023-01-29T02:07:12.013Z,67
2023-01-29T02:08:24.558Z,66
2023-01-29T02:09:40.037Z,66
2023-01-29T02:10:57.851Z,66
2023-01-29T02:12:05.759Z,66
2023-01-29T02:13:15.489Z,66
2023-01-29T02:14:23.110Z,66
2023-01-29T02:15:31.022Z,66
2023-01-29T02:16:38.351Z,66
2023-01-29T02:17:46.251Z,66
2023-01-29T02:18:54.359Z,66
2023-01-29T02:20:02.609Z,66
2023-01-29T02:21:10.575Z,67
2023-01-29T02:22:28.350Z,66
2023-01-29T02:23:43.919Z,66
2023-01-29T02:25:04.036Z,66
2023-01-29T02:26:22.175Z,66
2023-01-29T02:27:39.812Z,66
2023-01-29T02:28:52.059Z,66
2023-01-29T02:30:05.290Z,66
2023-01-29T02:31:21.737Z,66
2023-01-29T02:32:39.314Z,66
2023-01-29T02:33:52.042Z,66
2023-01-29T02:35:04.595Z,66
2023-01-29T02:36:20.351Z,66
2023-01-29T02:37:36.286Z,66
2023-01-29T02:38:43.506Z,66
2023-01-29T02:40:01.332Z,66
2023-01-29T02:41:19.886Z,66
2023-01-29T02:42:36.195Z,66
2023-01-29T02:43:48.459Z,66
2023-01-29T02:44:59.766Z,65
2023-01-29T02:46:15.512Z,65
2023-01-29T02:47:25.031Z,65
2023-01-29T02:48:39.662Z,65
2023-01-29T02:49:47.942Z,65
2023-01-29T02:51:04.134Z,66
2023-01-29T02:52:13.188Z,65
2023-01-29T02:53:20.134Z,65
2023-01-29T02:54:37.902Z,66
2023-01-29T02:55:53.858Z,66
2023-01-29T02:57:05.508Z,66
2023-01-29T02:58:18.530Z,66
2023-01-29T02:59:30.658Z,66
2023-01-29T03:00:39.474Z,66
2023-01-29T03:01:47.475Z,66
2023-01-29T03:02:57.702Z,65
2023-01-29T03:04:10.568Z,65
2023-01-29T03:05:17.705Z,65
2023-01-29T03:06:25.978Z,66
2023-01-29T03:07:35.908Z,65
2023-01-29T03:08:56.935Z,66
2023-01-29T03:10:10.539Z,66
2023-01-29T03:11:23.307Z,66
2023-01-29T03:12:33.244Z,65
2023-01-29T03:13:42.202Z,66
2023-01-29T03:14:52.181Z,66
2023-01-29T03:16:05.314Z,66
2023-01-29T03:17:17.865Z,66
2023-01-29T03:18:26.913Z,65
2023-01-29T03:19:34.315Z,65
2023-01-29T03:20:44.596Z,65
2023-01-29T03:21:56.963Z,65
2023-01-29T03:23:03.939Z,65
2023-01-29T03:24:16.460Z,65
2023-01-29T03:25:29.130Z,65
2023-01-29T03:26:41.724Z,65
2023-01-29T03:27:55.278Z,65
2023-01-29T03:29:08.263Z,66
2023-01-29T03:30:21.005Z,65
2023-01-29T03:31:33.505Z,65
2023-01-29T03:32:45.701Z,65
2023-01-29T03:33:52.791Z,65
2023-01-29T03:35:11.779Z,65
2023-01-29T03:36:18.946Z,65
2023-01-29T03:37:32.036Z,65
2023-01-29T03:38:39.864Z,65
2023-01-29T03:39:47.130Z,65
2023-01-29T03:40:55.957Z,65
2023-01-29T03:42:10.293Z,65
2023-01-29T03:43:22.869Z,64
2023-01-29T03:44:40.484Z,65
2023-01-29T03:45:53.587Z,65
2023-01-29T03:47:08.470Z,65
2023-01-29T03:48:18.539Z,65
2023-01-29T03:49:30.859Z,64
2023-01-29T03:50:46.255Z,64
2023-01-29T03:52:01.472Z,64
2023-01-29T03:53:14.787Z,64
2023-01-29T03:54:24.698Z,63
2023-01-29T03:55:31.961Z,64
2023-01-29T03:56:44.346Z,64
2023-01-29T03:58:00.935Z,64
2023-01-29T03:59:11.299Z,64
2023-01-29T04:00:30.110Z,64
2023-01-29T04:01:43.268Z,64
2023-01-29T04:02:55.938Z,64
2023-01-29T04:04:15.338Z,64
2023-01-29T04:05:22.202Z,64
2023-01-29T04:06:29.339Z,65
2023-01-29T04:07:36.480Z,65
2023-01-29T04:08:44.245Z,65
2023-01-29T04:10:01.618Z,65
2023-01-29T04:11:10.987Z,65
2023-01-29T04:12:19.226Z,65
2023-01-29T04:13:30.314Z,65
2023-01-29T04:14:37.720Z,65
2023-01-29T04:15:44.650Z,65
2023-01-29T04:16:54.905Z,65
2023-01-29T04:18:02.134Z,65
2023-01-29T04:19:09.210Z,65
2023-01-29T04:20:17.556Z,65
2023-01-29T04:21:24.378Z,65
2023-01-29T04:22:32.908Z,65
2023-01-29T04:23:42.077Z,65
2023-01-29T04:24:49.846Z,65
2023-01-29T04:25:57.280Z,65
2023-01-29T04:27:14.737Z,65
2023-01-29T04:28:29.998Z,65
2023-01-29T04:29:44.394Z,65
2023-01-29T04:31:01.292Z,65
2023-01-29T04:32:08.247Z,65
2023-01-29T04:33:20.429Z,65
2023-01-29T04:34:38.225Z,65
2023-01-29T04:35:51.509Z,65
2023-01-29T04:37:03.717Z,65
2023-01-29T04:38:19.177Z,65
2023-01-29T04:39:36.777Z,64
2023-01-29T04:40:43.999Z,65
2023-01-29T04:41:57.520Z,65
2023-01-29T04:43:15.764Z,64
2023-01-29T04:44:28.961Z,64
2023-01-29T04:45:44.532Z,64
2023-01-29T04:47:02.268Z,64
2023-01-29T04:48:10.379Z,64
2023-01-29T04:49:21.037Z,64
2023-01-29T04:50:33.321Z,64
2023-01-29T04:51:44.738Z,64
2023-01-29T04:52:56.034Z,64
2023-01-29T04:54:03.684Z,64
2023-01-29T04:55:11.485Z,65
2023-01-29T04:56:24.513Z,64
2023-01-29T04:57:36.974Z,65
2023-01-29T04:58:55.729Z,64
2023-01-29T05:00:04.536Z,64
2023-01-29T05:01:17.019Z,65
2023-01-29T05:02:25.163Z,65
2023-01-29T05:03:32.954Z,65
2023-01-29T05:04:40.741Z,65
2023-01-29T05:05:48.933Z,65
2023-01-29T05:06:56.233Z,64
2023-01-29T05:08:06.779Z,65
2023-01-29T05:09:14.931Z,65
2023-01-29T05:10:23.608Z,64
2023-01-29T05:11:32.190Z,64
2023-01-29T05:12:40.209Z,64
2023-01-29T05:13:47.755Z,64
2023-01-29T05:14:55.804Z,65
2023-01-29T05:16:04.008Z,65
2023-01-29T05:17:16.326Z,65
2023-01-29T05:18:23.820Z,65
2023-01-29T05:19:31.208Z,65
2023-01-29T05:20:39.770Z,65
2023-01-29T05:21:48.354Z,65
2023-01-29T05:22:55.676Z,65
2023-01-29T05:24:03.863Z,65
2023-01-29T05:25:19.195Z,65
2023-01-29T05:26:26.409Z,65
2023-01-29T05:27:40.372Z,65
2023-01-29T05:28:55.457Z,65
2023-01-29T05:30:02.676Z,65
2023-01-29T05:31:10.608Z,65
2023-01-29T05:32:18.825Z,65
2023-01-29T05:33:25.824Z,65
2023-01-29T05:34:32.917Z,64
2023-01-29T05:35:40.092Z,65
2023-01-29T05:36:47.173Z,65
2023-01-29T05:37:54.461Z,65
2023-01-29T05:39:01.750Z,65
2023-01-29T05:40:11.160Z,65
2023-01-29T05:41:19.137Z,65
2023-01-29T05:42:27.323Z,65
2023-01-29T05:43:36.624Z,65
2023-01-29T05:44:43.709Z,65
2023-01-29T05:45:51.187Z,65
2023-01-29T05:46:58.572Z,65
2023-01-29T05:48:05.685Z,65
2023-01-29T05:49:13.513Z,64
2023-01-29T05:50:21.307Z,64
2023-01-29T05:51:28.558Z,64
2023-01-29T05:52:36.565Z,64
2023-01-29T05:53:44.619Z,64
2023-01-29T05:54:52.096Z,64
2023-01-29T05:55:59.155Z,64
2023-01-29T05:57:06.372Z,64
2023-01-29T05:58:14.491Z,64
2023-01-29T05:59:21.737Z,64
2023-01-29T06:00:29.297Z,64
2023-01-29T06:01:36.902Z,64
2023-01-29T06:02:43.899Z,64
2023-01-29T06:03:51.113Z,64
2023-01-29T06:04:58.760Z,63
2023-01-29T06:06:05.841Z,64
2023-01-29T06:07:14.588Z,63
2023-01-29T06:08:21.585Z,63
2023-01-29T06:09:29.721Z,64
2023-01-29T06:10:36.695Z,64
2023-01-29T06:11:43.888Z,64
2023-01-29T06:12:53.135Z,63
2023-01-29T06:14:00.312Z,63
2023-01-29T06:15:07.711Z,63
2023-01-29T06:16:16.079Z,63
2023-01-29T06:17:23.069Z,64
2023-01-29T06:18:30.865Z,64
2023-01-29T06:19:39.005Z,64
2023-01-29T06:20:46.063Z,64
2023-01-29T06:21:54.244Z,64
2023-01-29T06:23:01.478Z,64
2023-01-29T06:24:09.456Z,64
2023-01-29T06:25:16.717Z,64
2023-01-29T06:26:24.116Z,64
2023-01-29T06:27:31.316Z,64
2023-01-29T06:28:40.412Z,64
2023-01-29T06:29:47.677Z,64
2023-01-29T06:30:55.985Z,64
2023-01-29T06:32:03.368Z,64
2023-01-29T06:33:11.279Z,64
2023-01-29T06:34:18.675Z,64
2023-01-29T06:35:27.760Z,64
2023-01-29T06:36:35.095Z,64
2023-01-29T06:37:43.070Z,64
2023-01-29T06:38:50.231Z,64
2023-01-29T06:39:57.567Z,64
2023-01-29T06:41:10.128Z,64
2023-01-29T06:42:19.869Z,64
2023-01-29T06:43:27.353Z,64
2023-01-29T06:44:34.783Z,64
2023-01-29T06:45:42.139Z,64
2023-01-29T06:46:54.801Z,64
2023-01-29T06:48:02.090Z,64
2023-01-29T06:49:09.712Z,64
2023-01-29T06:50:18.201Z,64
2023-01-29T06:51:24.984Z,64
2023-01-29T06:52:33.069Z,64
2023-01-29T06:53:46.902Z,64
2023-01-29T06:55:00.045Z,64
2023-01-29T06:56:07.194Z,64
2023-01-29T06:57:14.460Z,64
2023-01-29T06:58:21.341Z,65
2023-01-29T06:59:28.408Z,65
2023-01-29T07:00:35.765Z,65
2023-01-29T07:01:42.977Z,65
2023-01-29T07:02:50.577Z,66
2023-01-29T07:03:58.458Z,66
2023-01-29T07:05:05.701Z,66
2023-01-29T07:06:13.751Z,66
2023-01-29T07:07:21.924Z,66
2023-01-29T07:08:29.017Z,66
2023-01-29T07:09:36.161Z,66
2023-01-29T07:10:43.284Z,66
2023-01-29T07:11:50.425Z,66
2023-01-29T07:12:57.638Z,66
2023-01-29T07:14:06.492Z,66
2023-01-29T07:15:13.862Z,66
2023-01-29T07:16:21.177Z,66
2023-01-29T07:17:28.723Z,66
2023-01-29T07:18:36.132Z,66
2023-01-29T07:19:43.325Z,67
2023-01-29T07:20:50.381Z,68
2023-01-29T07:21:58.496Z,68
2023-01-29T07:23:05.708Z,68
2023-01-29T07:24:13.098Z,69
2023-01-29T07:25:20.669Z,70
2023-01-29T07:26:28.958Z,70
2023-01-29T07:27:36.168Z,71
2023-01-29T07:28:44.234Z,71
2023-01-29T07:29:51.417Z,71
2023-01-29T07:30:58.748Z,72
2023-01-29T07:32:05.946Z,71
2023-01-29T07:33:14.093Z,71
2023-01-29T07:34:20.960Z,72
2023-01-29T07:35:28.625Z,72
2023-01-29T07:36:35.902Z,72
2023-01-29T07:37:44.328Z,71
2023-01-29T07:38:54.026Z,71
2023-01-29T07:40:01.159Z,71
2023-01-29T07:41:08.948Z,71
2023-01-29T07:42:15.921Z,72
2023-01-29T07:43:23.053Z,71
2023-01-29T07:44:30.138Z,71
2023-01-29T07:45:37.446Z,72
2023-01-29T07:46:44.473Z,73
2023-01-29T07:47:51.583Z,73
2023-01-29T07:48:59.817Z,73
2023-01-29T07:50:06.938Z,73
2023-01-29T07:51:14.474Z,73
2023-01-29T07:52:22.428Z,74
2023-01-29T07:53:28.871Z,73
2023-01-29T07:54:36.448Z,73
2023-01-29T07:55:44.622Z,73
2023-01-29T07:56:51.564Z,73
2023-01-29T07:57:58.755Z,73
2023-01-29T07:59:06.960Z,73
2023-01-29T08:00:14.225Z,73
2023-01-29T08:01:21.755Z,73
2023-01-29T08:02:29.365Z,73
2023-01-29T08:03:36.613Z,73
2023-01-29T08:04:43.972Z,73
2023-01-29T08:05:51.212Z,73
2023-01-29T08:06:58.309Z,74
2023-01-29T08:08:07.735Z,73
2023-01-29T08:09:13.637Z,74
2023-01-29T08:10:20.766Z,74
2023-01-29T08:11:29.108Z,74
2023-01-29T08:12:37.187Z,74
2023-01-29T08:13:44.497Z,73
2023-01-29T08:14:51.656Z,73
2023-01-29T08:15:59.052Z,73
2023-01-29T08:17:06.412Z,73
2023-01-29T08:18:13.603Z,72
2023-01-29T08:19:20.845Z,72
2023-01-29T08:20:28.432Z,72
2023-01-29T08:21:35.432Z,72
2023-01-29T08:22:42.520Z,72
2023-01-29T08:23:49.741Z,72
2023-01-29T08:25:06.247Z,72
2023-01-29T08:26:04.692Z,72
2023-01-29T08:27:11.705Z,73
2023-01-29T08:28:19.052Z,73
2023-01-29T08:29:26.401Z,73
2023-01-29T08:30:33.436Z,73
2023-01-29T08:31:40.658Z,73
2023-01-29T08:32:48.578Z,73
2023-01-29T08:33:55.902Z,73
2023-01-29T08:35:03.128Z,73
2023-01-29T08:36:10.762Z,72
2023-01-29T08:37:18.872Z,72
2023-01-29T08:38:26.152Z,73
2023-01-29T08:39:34.603Z,72
2023-01-29T08:40:41.182Z,72
2023-01-29T08:41:48.375Z,72
2023-01-29T08:42:56.487Z,72
2023-01-29T08:44:09.100Z,72
2023-01-29T08:45:16.666Z,72
2023-01-29T08:46:23.992Z,72
2023-01-29T08:47:31.076Z,71
2023-01-29T08:48:39.136Z,72
2023-01-29T08:49:47.320Z,72
2023-01-29T08:50:54.540Z,72
2023-01-29T08:52:03.172Z,71
2023-01-29T08:53:08.809Z,72
2023-01-29T08:54:17.119Z,73
2023-01-29T08:55:25.008Z,72
2023-01-29T08:56:32.118Z,72
2023-01-29T08:57:40.340Z,71
2023-01-29T08:58:47.739Z,71
2023-01-29T08:59:56.036Z,71
2023-01-29T09:01:03.267Z,70
2023-01-29T09:02:13.701Z,70
2023-01-29T09:03:20.744Z,70
2023-01-29T09:04:28.088Z,70
2023-01-29T09:05:35.367Z,71
2023-01-29T09:06:42.492Z,70
2023-01-29T09:07:49.575Z,70
2023-01-29T09:08:56.758Z,69
2023-01-29T09:10:03.904Z,69
2023-01-29T09:11:11.399Z,69
2023-01-29T09:12:18.729Z,69
2023-01-29T09:13:26.260Z,70
2023-01-29T09:14:33.352Z,70
2023-01-29T09:15:40.420Z,70
2023-01-29T09:16:47.706Z,70
2023-01-29T09:17:54.776Z,69
2023-01-29T09:19:01.839Z,68
2023-01-29T09:20:09.057Z,68
2023-01-29T09:21:17.123Z,68
2023-01-29T09:22:24.183Z,68
2023-01-29T09:23:31.347Z,68
2023-01-29T09:24:38.390Z,68
2023-01-29T09:25:45.551Z,68
2023-01-29T09:26:52.711Z,68
2023-01-29T09:27:59.976Z,68
2023-01-29T09:29:07.031Z,68
2023-01-29T09:30:14.222Z,68
2023-01-29T09:31:21.931Z,68
2023-01-29T09:32:52.976Z,68
2023-01-29T09:33:36.087Z,67
2023-01-29T09:34:43.285Z,68
2023-01-29T09:35:50.245Z,68
2023-01-29T09:36:57.400Z,68
2023-01-29T09:38:04.493Z,68
2023-01-29T09:39:12.859Z,67
2023-01-29T09:40:19.884Z,67
2023-01-29T09:41:29.885Z,68
2023-01-29T09:42:45.296Z,68
2023-01-29T09:43:52.263Z,67
2023-01-29T09:44:59.595Z,67
2023-01-29T09:46:09.821Z,67
2023-01-29T09:47:19.657Z,67
2023-01-29T09:48:26.987Z,67
2023-01-29T09:49:34.139Z,67
2023-01-29T09:50:41.291Z,66
2023-01-29T09:51:48.312Z,65
2023-01-29T09:53:00.599Z,65
2023-01-29T09:54:12.831Z,65
2023-01-29T09:55:19.943Z,66
2023-01-29T09:56:30.178Z,65
2023-01-29T09:57:37.187Z,66
2023-01-29T09:58:49.475Z,65
2023-01-29T09:59:56.599Z,65
2023-01-29T10:01:03.715Z,66
2023-01-29T10:02:16.009Z,66
2023-01-29T10:03:28.486Z,66
2023-01-29T10:04:45.923Z,66
2023-01-29T10:05:52.940Z,66
2023-01-29T10:07:10.555Z,66
2023-01-29T10:08:25.427Z,66
2023-01-29T10:09:37.807Z,66
2023-01-29T10:10:49.919Z,66
2023-01-29T10:12:02.820Z,66
2023-01-29T10:13:14.958Z,66
2023-01-29T10:14:32.681Z,66
2023-01-29T10:15:47.912Z,66
2023-01-29T10:17:05.422Z,66
2023-01-29T10:18:20.853Z,66
2023-01-29T10:19:30.692Z,66
2023-01-29T10:20:47.974Z,66
2023-01-29T10:22:00.310Z,66
2023-01-29T10:23:15.538Z,66
2023-01-29T10:24:25.174Z,66
2023-01-29T10:25:42.479Z,65
2023-01-29T10:26:49.656Z,65
2023-01-29T10:27:56.756Z,65
2023-01-29T10:29:03.870Z,65
2023-01-29T10:30:10.971Z,65
2023-01-29T10:31:23.446Z,65
2023-01-29T10:32:36.407Z,65
2023-01-29T10:33:48.904Z,65
2023-01-29T10:34:55.779Z,65
2023-01-29T10:36:07.958Z,65
2023-01-29T10:37:20.783Z,64
2023-01-29T10:38:33.382Z,65
2023-01-29T10:39:48.907Z,64
2023-01-29T10:40:56.333Z,64
2023-01-29T10:42:07.738Z,64
2023-01-29T10:43:26.187Z,64
2023-01-29T10:44:33.454Z,64
2023-01-29T10:45:43.631Z,64
2023-01-29T10:46:55.900Z,64
2023-01-29T10:48:06.113Z,64
2023-01-29T10:49:13.171Z,63
2023-01-29T10:50:29.561Z,63
2023-01-29T10:51:48.541Z,62
2023-01-29T10:53:01.376Z,62
2023-01-29T10:54:19.549Z,63
2023-01-29T10:55:30.687Z,62
2023-01-29T10:56:49.257Z,62
2023-01-29T10:57:57.909Z,62
2023-01-29T10:59:10.384Z,62
2023-01-29T11:00:23.016Z,62
2023-01-29T11:01:30.529Z,62
2023-01-29T11:02:37.763Z,62
2023-01-29T11:03:47.784Z,63
2023-01-29T11:05:03.263Z,63
2023-01-29T11:06:10.434Z,63
2023-01-29T11:07:23.036Z,64
2023-01-29T11:08:30.335Z,64
2023-01-29T11:09:42.777Z,64
2023-01-29T11:10:54.148Z,64
2023-01-29T11:12:07.091Z,64
2023-01-29T11:13:19.571Z,64
2023-01-29T11:14:27.155Z,65
2023-01-29T11:15:41.195Z,65
2023-01-29T11:16:48.573Z,65
2023-01-29T11:17:55.899Z,64
2023-01-29T11:19:06.495Z,64
2023-01-29T11:20:14.036Z,63
2023-01-29T11:21:29.068Z,63
2023-01-29T11:22:36.424Z,63
2023-01-29T11:23:43.937Z,63
2023-01-29T11:24:51.784Z,63
2023-01-29T11:26:09.572Z,63
2023-01-29T11:27:22.214Z,64
2023-01-29T11:28:31.279Z,63
2023-01-29T11:29:44.021Z,64
2023-01-29T11:30:51.240Z,64
2023-01-29T11:31:58.318Z,64
2023-01-29T11:33:05.603Z,64
2023-01-29T11:34:16.077Z,64
2023-01-29T11:35:23.139Z,63
2023-01-29T11:36:30.506Z,63
2023-01-29T11:37:40.429Z,63
2023-01-29T11:38:47.650Z,62
2023-01-29T11:39:55.059Z,62
2023-01-29T11:41:02.694Z,62
2023-01-29T11:42:10.938Z,62
2023-01-29T11:43:23.286Z,61
2023-01-29T11:44:30.473Z,61
2023-01-29T11:45:43.038Z,60
2023-01-29T11:46:51.203Z,61
2023-01-29T11:47:58.350Z,60
2023-01-29T11:49:14.210Z,61
2023-01-29T11:50:12.703Z,61
2023-01-29T11:51:25.744Z,61
2023-01-29T11:52:33.775Z,60
2023-01-29T11:53:41.318Z,60
2023-01-29T11:54:48.878Z,59
2023-01-29T11:55:58.950Z,59
2023-01-29T11:57:09.314Z,59
2023-01-29T11:58:26.976Z,59
2023-01-29T11:59:35.169Z,59
2023-01-29T12:00:48.889Z,59
2023-01-29T12:01:55.798Z,58
2023-01-29T12:03:09.146Z,58
2023-01-29T12:04:19.667Z,59
2023-01-29T12:05:27.177Z,58
2023-01-29T12:06:35.362Z,58
2023-01-29T12:07:42.634Z,58
2023-01-29T12:08:51.722Z,58
2023-01-29T12:09:59.016Z,57
2023-01-29T12:11:07.191Z,58
2023-01-29T12:12:14.282Z,57
2023-01-29T12:13:21.583Z,58
2023-01-29T12:14:29.860Z,58
2023-01-29T12:15:39.665Z,58
2023-01-29T12:16:46.782Z,57
2023-01-29T12:17:59.277Z,58
2023-01-29T12:19:14.509Z,58
2023-01-29T12:20:32.091Z,57
2023-01-29T12:21:42.401Z,58
2023-01-29T12:22:54.623Z,58
2023-01-29T12:24:02.071Z,57
2023-01-29T12:25:17.499Z,58
2023-01-29T12:26:25.808Z,57
2023-01-29T12:27:38.669Z,58
2023-01-29T12:28:46.892Z,57
2023-01-29T12:29:59.254Z,57
2023-01-29T12:31:15.496Z,57
2023-01-29T12:32:25.510Z,57
2023-01-29T12:33:43.251Z,57
2023-01-29T12:35:00.851Z,57
2023-01-29T12:36:18.506Z,57
2023-01-29T12:37:28.493Z,58
2023-01-29T12:38:46.070Z,59
2023-01-29T12:39:54.017Z,58
2023-01-29T12:41:01.393Z,57
2023-01-29T12:42:11.549Z,58
2023-01-29T12:43:23.853Z,58
2023-01-29T12:44:33.856Z,58
2023-01-29T12:45:44.075Z,58
2023-01-29T12:46:51.211Z,58
2023-01-29T12:47:59.495Z,58
2023-01-29T12:49:08.265Z,58
2023-01-29T12:50:15.685Z,59
2023-01-29T12:51:25.826Z,59
2023-01-29T12:52:38.922Z,59
2023-01-29T12:53:51.434Z,58
2023-01-29T12:55:01.660Z,58
2023-01-29T12:56:19.669Z,58
2023-01-29T12:57:27.481Z,58
2023-01-29T12:58:39.702Z,58
2023-01-29T12:59:49.908Z,59
2023-01-29T13:01:00.438Z,59
2023-01-29T13:02:11.240Z,59
2023-01-29T13:03:28.731Z,59
2023-01-29T13:04:44.726Z,58
2023-01-29T13:05:57.667Z,58
2023-01-29T13:07:12.093Z,58
2023-01-29T13:08:20.281Z,59
2023-01-29T13:09:27.594Z,58
2023-01-29T13:10:35.109Z,58
2023-01-29T13:11:42.367Z,58
2023-01-29T13:12:54.608Z,58
2023-01-29T13:14:10.090Z,58
2023-01-29T13:15:25.579Z,58
2023-01-29T13:16:37.961Z,58
2023-01-29T13:17:44.889Z,59
2023-01-29T13:18:58.240Z,59
2023-01-29T13:20:05.341Z,59
2023-01-29T13:21:23.027Z,58
2023-01-29T13:22:30.269Z,58
2023-01-29T13:23:37.797Z,58
2023-01-29T13:25:03.513Z,58
2023-01-29T13:25:57.839Z,58
2023-01-29T13:27:05.082Z,58
2023-01-29T13:28:12.107Z,58
2023-01-29T13:29:24.577Z,59
2023-01-29T13:30:32.084Z,58
2023-01-29T13:31:39.187Z,59
2023-01-29T13:32:47.336Z,59
2023-01-29T13:33:53.329Z,59
2023-01-29T13:35:06.032Z,59
2023-01-29T13:36:15.806Z,59
2023-01-29T13:37:22.822Z,59
2023-01-29T13:38:38.055Z,59
2023-01-29T13:39:51.679Z,59
2023-01-29T13:40:59.238Z,59
2023-01-29T13:42:09.487Z,59
2023-01-29T13:43:19.723Z,59
2023-01-29T13:44:36.906Z,59
2023-01-29T13:45:46.261Z,59
2023-01-29T13:46:53.353Z,59
2023-01-29T13:48:03.567Z,60
2023-01-29T13:49:14.601Z,60
2023-01-29T13:50:24.978Z,59
2023-01-29T13:51:34.800Z,59
2023-01-29T13:52:42.198Z,59
2023-01-29T13:53:54.460Z,59
2023-01-29T13:55:04.059Z,59
2023-01-29T13:56:17.436Z,59
2023-01-29T13:57:35.053Z,59
2023-01-29T13:58:47.382Z,59
2023-01-29T13:59:57.565Z,59
2023-01-29T14:01:04.805Z,59
2023-01-29T14:02:12.954Z,59
2023-01-29T14:03:23.162Z,59
2023-01-29T14:04:30.502Z,59
2023-01-29T14:05:37.639Z,59
2023-01-29T14:06:44.789Z,59
2023-01-29T14:07:52.133Z,59
2023-01-29T14:09:04.310Z,60
2023-01-29T14:10:21.637Z,59
2023-01-29T14:11:28.963Z,59
2023-01-29T14:12:39.217Z,59
2023-01-29T14:13:46.355Z,59
2023-01-29T14:14:53.573Z,59
2023-01-29T14:16:00.903Z,59
2023-01-29T14:17:07.918Z,59
2023-01-29T14:18:15.055Z,59
2023-01-29T14:19:24.764Z,59
2023-01-29T14:20:38.778Z,60
2023-01-29T14:21:49.629Z,59
2023-01-29T14:22:56.698Z,59
2023-01-29T14:24:03.817Z,59
2023-01-29T14:25:19.530Z,59
2023-01-29T14:26:26.330Z,60
2023-01-29T14:27:41.794Z,59
2023-01-29T14:28:52.062Z,59
2023-01-29T14:30:02.331Z,59
2023-01-29T14:31:09.485Z,59
2023-01-29T14:32:16.721Z,60
2023-01-29T14:33:23.828Z,60
2023-01-29T14:34:31.085Z,60
2023-01-29T14:35:38.206Z,60
2023-01-29T14:36:45.332Z,60
2023-01-29T14:37:52.564Z,60
2023-01-29T14:39:02.258Z,60
2023-01-29T14:40:09.364Z,60
2023-01-29T14:41:22.192Z,60
2023-01-29T14:42:32.054Z,60
2023-01-29T14:43:39.189Z,60
2023-01-29T14:44:46.479Z,60
2023-01-29T14:45:58.611Z,61
2023-01-29T14:47:14.026Z,60
2023-01-29T14:48:26.297Z,61
2023-01-29T14:49:38.714Z,61
2023-01-29T14:50:50.964Z,60
2023-01-29T14:51:58.344Z,60
2023-01-29T14:53:05.365Z,61
2023-01-29T14:54:22.757Z,61
2023-01-29T14:55:30.053Z,61
2023-01-29T14:56:46.222Z,60
2023-01-29T14:58:01.265Z,61
2023-01-29T14:59:09.265Z,61
2023-01-29T15:00:16.636Z,61
2023-01-29T15:01:23.799Z,61
2023-01-29T15:02:36.271Z,62
2023-01-29T15:03:43.312Z,62
2023-01-29T15:04:50.558Z,61
2023-01-29T15:05:57.700Z,61
2023-01-29T15:07:04.823Z,61
2023-01-29T15:08:15.061Z,61
2023-01-29T15:09:28.895Z,61
2023-01-29T15:10:42.395Z,61
2023-01-29T15:11:49.495Z,62
2023-01-29T15:13:02.145Z,61
2023-01-29T15:14:19.689Z,61
2023-01-29T15:15:32.682Z,61
2023-01-29T15:16:47.417Z,61
2023-01-29T15:17:57.327Z,62
2023-01-29T15:19:12.633Z,61
2023-01-29T15:20:24.757Z,62
2023-01-29T15:21:36.221Z,61
2023-01-29T15:22:43.733Z,61
2023-01-29T15:23:50.645Z,62
2023-01-29T15:24:57.849Z,62
2023-01-29T15:26:10.631Z,62
2023-01-29T15:27:25.552Z,62
2023-01-29T15:28:32.817Z,62
2023-01-29T15:29:39.957Z,62
2023-01-29T15:30:47.280Z,62
2023-01-29T15:31:54.462Z,62
2023-01-29T15:33:01.713Z,62
2023-01-29T15:34:08.697Z,62
2023-01-29T15:35:16.146Z,62
2023-01-29T15:36:28.394Z,62
2023-01-29T15:37:35.609Z,62
2023-01-29T15:38:42.656Z,62
2023-01-29T15:39:51.447Z,62
2023-01-29T15:40:56.980Z,62
2023-01-29T15:42:04.322Z,62
2023-01-29T15:43:14.485Z,62
2023-01-29T15:44:21.436Z,62
2023-01-29T15:45:28.774Z,62
2023-01-29T15:46:35.965Z,62
2023-01-29T15:47:43.106Z,62
2023-01-29T15:48:50.208Z,62
2023-01-29T15:49:57.518Z,62
2023-01-29T15:51:04.429Z,62
2023-01-29T15:52:11.557Z,62
2023-01-29T15:53:18.685Z,62
2023-01-29T15:54:25.964Z,62
2023-01-29T15:55:33.353Z,62
2023-01-29T15:56:40.670Z,62
2023-01-29T15:57:47.725Z,62
2023-01-29T15:58:54.843Z,62
2023-01-29T16:00:02.053Z,62
2023-01-29T16:01:09.213Z,62
2023-01-29T16:02:16.358Z,62
2023-01-29T16:03:28.793Z,62
2023-01-29T16:04:35.969Z,62
2023-01-29T16:05:44.137Z,62
2023-01-29T16:06:51.321Z,62
2023-01-29T16:07:58.394Z,62
2023-01-29T16:09:05.947Z,62
2023-01-29T16:10:13.195Z,63
2023-01-29T16:11:25.419Z,63
2023-01-29T16:12:32.426Z,63
2023-01-29T16:13:39.569Z,63
2023-01-29T16:14:46.744Z,63
2023-01-29T16:15:54.027Z,62
2023-01-29T16:17:01.315Z,62
2023-01-29T16:18:14.389Z,63
2023-01-29T16:19:24.534Z,62
2023-01-29T16:20:31.691Z,62
2023-01-29T16:21:41.986Z,63
2023-01-29T16:22:48.894Z,63
2023-01-29T16:23:56.007Z,63
2023-01-29T16:25:07.049Z,62
2023-01-29T16:26:14.427Z,63
2023-01-29T16:27:21.608Z,63
2023-01-29T16:28:28.508Z,62
2023-01-29T16:29:35.786Z,62
2023-01-29T16:30:42.997Z,63
2023-01-29T16:31:51.267Z,63
2023-01-29T16:32:58.405Z,63